Time;durP1;ratioP1;P1;durP2;ratioP2;P2;SDS_P1;SDS_P2;PMS_P1;PMS_P2;Temp;Humidity;BMP_temperature;BMP_pressure;BME280_temperature;BME280_humidity;BME280_pressure;Samples;Min_cycle;Max_cycle;Signal;HPM_P1;HPM_P2
2021/04/23 00:01:53;;;;;;;10.63;3.63;;;;;;;;;;4920870;29;20080;-68
2021/04/23 00:04:19;;;;;;;7.18;2.83;;;;;;;;;;4918034;29;20075;-68
2021/04/23 00:06:49;;;;;;;7.63;3.08;;;;;;;;;;4933864;29;20153;-68
2021/04/23 00:09:21;;;;;;;11.82;3.40;;;;;;;;;;4931267;29;20103;-68
2021/04/23 00:11:51;;;;;;;5.80;3.25;;;;;;;;;;4915386;29;20079;-68
2021/04/23 00:14:20;;;;;;;4.55;2.30;;;;;;;;;;4915381;29;20075;-68
2021/04/23 00:16:46;;;;;;;5.97;2.40;;;;;;;;;;4928498;29;20051;-68
2021/04/23 00:19:18;;;;;;;6.32;3.13;;;;;;;;;;4934217;29;20066;-68
2021/04/23 00:21:44;;;;;;;7.43;2.65;;;;;;;;;;4934228;29;20083;-68
2021/04/23 00:24:10;;;;;;;6.18;2.80;;;;;;;;;;4932093;29;20083;-68
2021/04/23 00:26:37;;;;;;;12.23;3.60;;;;;;;;;;4914738;29;20052;-68
2021/04/23 00:29:03;;;;;;;7.38;2.88;;;;;;;;;;4923104;29;20056;-68
2021/04/23 00:31:30;;;;;;;9.50;3.47;;;;;;;;;;4934639;29;20511;-67
2021/04/23 00:33:56;;;;;;;9.38;2.90;;;;;;;;;;4934069;29;20430;-68
2021/04/23 00:36:22;;;;;;;12.70;3.55;;;;;;;;;;4919336;29;20451;-68
2021/04/23 00:38:49;;;;;;;11.65;4.03;;;;;;;;;;4915077;29;20087;-67
2021/04/23 00:41:18;;;;;;;10.68;3.85;;;;;;;;;;4914958;29;20067;-68
2021/04/23 00:43:55;;;;;;;12.52;4.40;;;;;;;;;;4918446;29;20048;-68
2021/04/23 00:46:22;;;;;;;14.13;4.00;;;;;;;;;;4932830;29;20052;-68
2021/04/23 00:48:49;;;;;;;13.77;4.40;;;;;;;;;;4917124;29;20052;-67
2021/04/23 00:51:22;;;;;;;13.00;5.03;;;;;;;;;;4933833;29;20503;-67
2021/04/23 00:53:50;;;;;;;11.10;4.13;;;;;;;;;;4934072;29;20474;-67
2021/04/23 00:56:20;;;;;;;11.68;4.03;;;;;;;;;;4916322;29;20056;-68
2021/04/23 00:58:47;;;;;;;10.57;3.97;;;;;;;;;;4914941;29;20056;-68
2021/04/23 01:01:19;;;;;;;12.25;4.53;;;;;;;;;;4921200;29;20044;-68
2021/04/23 01:03:45;;;;;;;9.85;3.80;;;;;;;;;;4933962;29;20083;-67
2021/04/23 01:06:17;;;;;;;6.70;3.10;;;;;;;;;;4925695;29;20506;-69
2021/04/23 01:08:45;;;;;;;6.05;3.42;;;;;;;;;;4928197;29;20056;-68
2021/04/23 01:11:12;;;;;;;10.07;3.95;;;;;;;;;;4914794;29;20431;-68
2021/04/23 01:13:38;;;;;;;10.38;3.97;;;;;;;;;;4917705;29;20622;-67
2021/04/23 01:16:09;;;;;;;10.88;3.88;;;;;;;;;;4936397;29;20084;-68
2021/04/23 01:18:36;;;;;;;8.82;3.95;;;;;;;;;;4937349;29;20086;-67
2021/04/23 01:21:10;;;;;;;5.78;3.38;;;;;;;;;;4937196;29;20048;-67
2021/04/23 01:23:38;;;;;;;11.60;3.88;;;;;;;;;;4937100;29;20143;-68
2021/04/23 01:26:05;;;;;;;14.05;4.05;;;;;;;;;;4921895;29;20056;-67
2021/04/23 01:28:31;;;;;;;7.63;3.75;;;;;;;;;;4919344;29;20087;-68
2021/04/23 01:30:59;;;;;;;7.18;3.78;;;;;;;;;;4935283;29;20086;-67
2021/04/23 01:33:25;;;;;;;8.77;4.15;;;;;;;;;;4918065;29;20056;-68
2021/04/23 01:35:51;;;;;;;8.35;4.50;;;;;;;;;;4926679;29;20103;-68
2021/04/23 01:38:18;;;;;;;9.52;4.30;;;;;;;;;;4937468;29;20091;-68
2021/04/23 01:40:45;;;;;;;8.85;4.10;;;;;;;;;;4935862;29;20095;-68
2021/04/23 01:43:13;;;;;;;10.45;3.58;;;;;;;;;;4937055;29;20501;-68
2021/04/23 01:45:39;;;;;;;8.88;3.47;;;;;;;;;;4935489;29;20079;-68
2021/04/23 01:48:05;;;;;;;9.05;4.00;;;;;;;;;;4937169;29;20122;-67
2021/04/23 01:50:31;;;;;;;8.77;3.40;;;;;;;;;;4915036;29;20115;-67
2021/04/23 01:52:58;;;;;;;11.07;3.53;;;;;;;;;;4936565;29;20056;-67
2021/04/23 01:55:24;;;;;;;11.85;4.80;;;;;;;;;;4934604;29;20099;-67
2021/04/23 01:57:50;;;;;;;6.93;3.63;;;;;;;;;;4924932;29;20504;-67
2021/04/23 02:00:27;;;;;;;8.05;3.20;;;;;;;;;;4917509;29;20087;-67
2021/04/23 02:02:56;;;;;;;7.63;3.47;;;;;;;;;;4917494;29;20504;-68
2021/04/23 02:05:23;;;;;;;11.20;3.55;;;;;;;;;;4920993;29;20422;-68
2021/04/23 02:07:53;;;;;;;7.35;3.60;;;;;;;;;;4936208;29;20136;-67
2021/04/23 02:10:26;;;;;;;4.80;2.90;;;;;;;;;;4936390;29;20438;-68
2021/04/23 02:12:52;;;;;;;7.40;3.10;;;;;;;;;;4936043;29;20052;-67
2021/04/23 02:15:19;;;;;;;8.55;3.40;;;;;;;;;;4935374;29;20570;-68
2021/04/23 02:17:45;;;;;;;5.10;3.10;;;;;;;;;;4936014;29;20048;-67
2021/04/23 02:20:17;;;;;;;6.22;3.10;;;;;;;;;;4935986;29;20083;-67
2021/04/23 02:22:45;;;;;;;7.95;3.20;;;;;;;;;;4935812;29;20048;-67
2021/04/23 02:25:12;;;;;;;9.32;3.60;;;;;;;;;;4935028;29;20118;-67
2021/04/23 02:27:39;;;;;;;9.93;4.43;;;;;;;;;;4935766;29;20191;-67
2021/04/23 02:30:09;;;;;;;7.68;3.42;;;;;;;;;;4931422;29;20087;-67
2021/04/23 02:32:35;;;;;;;8.45;3.45;;;;;;;;;;4917921;29;20075;-68
2021/04/23 02:35:04;;;;;;;7.75;3.75;;;;;;;;;;4935596;29;20053;-67
2021/04/23 02:37:30;;;;;;;8.02;3.33;;;;;;;;;;4927178;29;20103;-67
2021/04/23 02:39:56;;;;;;;8.45;4.10;;;;;;;;;;4926257;29;20554;-67
2021/04/23 02:42:23;;;;;;;7.53;3.25;;;;;;;;;;4924717;29;20047;-67
2021/04/23 02:44:49;;;;;;;8.90;4.22;;;;;;;;;;4922133;29;20055;-67
2021/04/23 02:47:15;;;;;;;6.13;3.95;;;;;;;;;;4933723;29;20143;-67
2021/04/23 02:49:42;;;;;;;7.28;3.67;;;;;;;;;;4934376;29;20119;-68
2021/04/23 02:52:08;;;;;;;9.85;3.60;;;;;;;;;;4935739;29;20055;-67
2021/04/23 02:54:34;;;;;;;8.77;3.70;;;;;;;;;;4934266;29;20404;-67
2021/04/23 02:57:00;;;;;;;6.50;4.00;;;;;;;;;;4934661;29;20503;-67
2021/04/23 02:59:26;;;;;;;8.07;3.55;;;;;;;;;;4935380;29;20086;-67
2021/04/23 03:01:54;;;;;;;11.02;3.80;;;;;;;;;;4935276;29;20075;-67
2021/04/23 03:04:21;;;;;;;6.65;3.78;;;;;;;;;;4935068;29;20047;-68
2021/04/23 03:06:48;;;;;;;9.80;4.22;;;;;;;;;;4959974;23;20138;-71
2021/04/23 03:09:14;;;;;;;7.43;4.22;;;;;;;;;;4940602;28;20086;-71
2021/04/23 03:11:41;;;;;;;10.30;3.75;;;;;;;;;;4956457;28;20047;-71
2021/04/23 03:14:07;;;;;;;6.57;3.67;;;;;;;;;;4940634;28;20113;-70
2021/04/23 03:16:34;;;;;;;9.38;3.35;;;;;;;;;;4955439;28;20062;-70
2021/04/23 03:19:00;;;;;;;7.80;4.35;;;;;;;;;;4972223;28;20061;-70
2021/04/23 03:21:27;;;;;;;10.68;3.95;;;;;;;;;;4969541;28;20055;-71
2021/04/23 03:23:54;;;;;;;7.65;3.78;;;;;;;;;;4953059;28;20055;-71
2021/04/23 03:26:21;;;;;;;7.82;3.70;;;;;;;;;;4945248;28;20054;-71
2021/04/23 03:28:47;;;;;;;8.10;3.47;;;;;;;;;;4956255;28;20047;-70
2021/04/23 03:31:15;;;;;;;7.75;3.58;;;;;;;;;;4956422;28;20117;-71
2021/04/23 03:33:41;;;;;;;11.35;4.03;;;;;;;;;;4953343;28;20039;-70
2021/04/23 03:36:11;;;;;;;6.45;3.75;;;;;;;;;;4935564;28;20098;-70
2021/04/23 03:38:39;;;;;;;11.02;3.95;;;;;;;;;;4949429;28;20050;-70
2021/04/23 03:41:11;;;;;;;7.65;4.32;;;;;;;;;;4966318;28;20565;-70
2021/04/23 03:43:38;;;;;;;12.55;4.47;;;;;;;;;;4953375;28;20054;-70
2021/04/23 03:46:04;;;;;;;11.93;4.00;;;;;;;;;;4963348;28;20078;-70
2021/04/23 03:48:33;;;;;;;13.57;4.53;;;;;;;;;;4955812;28;20499;-70
2021/04/23 03:51:02;;;;;;;8.80;5.22;;;;;;;;;;4956041;28;20062;-70
2021/04/23 03:53:28;;;;;;;7.85;3.97;;;;;;;;;;4955590;28;20058;-70
2021/04/23 03:55:54;;;;;;;9.90;3.47;;;;;;;;;;4955161;28;20079;-70
2021/04/23 03:58:21;;;;;;;10.30;3.97;;;;;;;;;;4958788;28;20051;-70
2021/04/23 04:00:53;;;;;;;7.75;3.83;;;;;;;;;;4936358;28;20422;-70
2021/04/23 04:03:20;;;;;;;9.75;3.80;;;;;;;;;;4936865;29;20422;-71
2021/04/23 04:05:47;;;;;;;8.80;3.97;;;;;;;;;;4935987;29;20087;-70
2021/04/23 04:08:13;;;;;;;8.80;4.32;;;;;;;;;;4952424;28;20059;-70
2021/04/23 04:10:39;;;;;;;7.28;3.88;;;;;;;;;;4936539;29;20122;-70
2021/04/23 04:13:06;;;;;;;13.32;5.70;;;;;;;;;;4952325;28;20059;-70
2021/04/23 04:15:33;;;;;;;7.88;4.30;;;;;;;;;;4951181;28;20055;-70
2021/04/23 04:17:59;;;;;;;7.70;4.13;;;;;;;;;;4951955;28;20051;-70
2021/04/23 04:20:28;;;;;;;9.73;4.80;;;;;;;;;;4953619;28;20051;-70
2021/04/23 04:22:55;;;;;;;10.98;4.90;;;;;;;;;;4951998;28;20051;-70
2021/04/23 04:25:32;;;;;;;9.35;4.75;;;;;;;;;;4951551;28;20090;-72
2021/04/23 04:27:59;;;;;;;9.50;3.70;;;;;;;;;;4921093;29;20051;-70
2021/04/23 04:30:26;;;;;;;7.55;4.28;;;;;;;;;;4920641;29;20047;-70
2021/04/23 04:32:52;;;;;;;8.70;4.50;;;;;;;;;;4936257;29;20102;-71
2021/04/23 04:35:18;;;;;;;8.73;4.47;;;;;;;;;;4920300;29;20059;-70
2021/04/23 04:37:44;;;;;;;9.15;4.82;;;;;;;;;;4952776;29;20051;-70
2021/04/23 04:40:12;;;;;;;9.55;4.93;;;;;;;;;;4953535;29;20055;-70
2021/04/23 04:42:38;;;;;;;13.35;5.07;;;;;;;;;;4920637;29;20047;-70
2021/04/23 04:45:06;;;;;;;11.50;4.30;;;;;;;;;;4936137;29;20050;-71
2021/04/23 04:47:32;;;;;;;10.40;4.53;;;;;;;;;;4926108;28;20572;-71
2021/04/23 04:50:00;;;;;;;10.90;4.63;;;;;;;;;;4973814;28;20054;-70
2021/04/23 04:52:27;;;;;;;13.13;5.38;;;;;;;;;;4959012;28;20102;-70
2021/04/23 04:54:53;;;;;;;12.27;4.80;;;;;;;;;;4950074;28;20186;-70
2021/04/23 04:57:19;;;;;;;9.98;4.70;;;;;;;;;;4939049;29;20051;-71
2021/04/23 04:59:46;;;;;;;11.73;5.55;;;;;;;;;;4939719;29;20055;-70
2021/04/23 05:02:13;;;;;;;14.63;4.75;;;;;;;;;;4958561;28;20058;-70
2021/04/23 05:04:39;;;;;;;9.13;3.95;;;;;;;;;;4958904;28;20058;-70
2021/04/23 05:07:06;;;;;;;8.07;4.18;;;;;;;;;;4973591;28;20078;-70
2021/04/23 05:09:32;;;;;;;11.93;4.00;;;;;;;;;;4958885;28;20047;-70
2021/04/23 05:11:58;;;;;;;12.02;4.15;;;;;;;;;;4974785;28;20050;-70
2021/04/23 05:14:24;;;;;;;7.95;4.05;;;;;;;;;;4958748;28;20058;-70
2021/04/23 05:16:50;;;;;;;11.32;4.03;;;;;;;;;;4957872;28;20078;-70
2021/04/23 05:19:18;;;;;;;7.65;3.67;;;;;;;;;;4974446;28;20078;-70
2021/04/23 05:21:44;;;;;;;13.50;4.55;;;;;;;;;;4974524;28;20055;-70
2021/04/23 05:24:11;;;;;;;6.85;3.78;;;;;;;;;;4974153;28;20473;-70
2021/04/23 05:26:37;;;;;;;6.32;3.70;;;;;;;;;;4973395;28;20054;-70
2021/04/23 05:29:04;;;;;;;8.40;4.72;;;;;;;;;;4974386;28;20110;-70
2021/04/23 05:31:32;;;;;;;12.63;5.45;;;;;;;;;;4974231;28;20050;-70
2021/04/23 05:33:59;;;;;;;7.13;3.85;;;;;;;;;;4957697;28;20058;-70
2021/04/23 05:36:25;;;;;;;10.57;3.65;;;;;;;;;;4957231;28;20054;-70
2021/04/23 05:38:51;;;;;;;13.70;4.45;;;;;;;;;;4958352;28;20347;-70
2021/04/23 05:41:17;;;;;;;15.38;4.93;;;;;;;;;;4970378;28;20126;-71
2021/04/23 05:43:45;;;;;;;21.42;4.68;;;;;;;;;;4938870;28;20125;-71
2021/04/23 05:46:11;;;;;;;19.17;6.03;;;;;;;;;;4955523;28;20106;-70
2021/04/23 05:48:37;;;;;;;15.25;5.15;;;;;;;;;;4938869;29;20047;-70
2021/04/23 05:51:04;;;;;;;11.02;3.95;;;;;;;;;;4971341;28;20082;-70
2021/04/23 05:53:31;;;;;;;11.95;4.20;;;;;;;;;;4974135;28;20050;-70
2021/04/23 05:55:57;;;;;;;10.48;4.40;;;;;;;;;;4974279;28;20043;-70
2021/04/23 05:58:23;;;;;;;11.05;5.15;;;;;;;;;;4957792;28;20054;-70
2021/04/23 06:00:50;;;;;;;10.77;4.20;;;;;;;;;;4959952;28;20051;-70
2021/04/23 06:03:16;;;;;;;10.82;4.88;;;;;;;;;;4954294;28;20103;-71
2021/04/23 06:05:42;;;;;;;12.82;5.82;;;;;;;;;;4954728;28;20059;-71
2021/04/23 06:08:10;;;;;;;14.48;6.30;;;;;;;;;;4938387;29;20106;-70
2021/04/23 06:10:41;;;;;;;10.93;5.78;;;;;;;;;;4954617;28;20078;-70
2021/04/23 06:13:07;;;;;;;11.20;6.20;;;;;;;;;;4938413;29;20097;-70
2021/04/23 06:15:33;;;;;;;13.07;6.10;;;;;;;;;;4937782;29;20246;-70
2021/04/23 06:17:59;;;;;;;15.07;5.80;;;;;;;;;;4937957;28;20086;-70
2021/04/23 06:20:29;;;;;;;13.25;7.05;;;;;;;;;;4938425;29;20051;-71
2021/04/23 06:22:57;;;;;;;12.98;5.47;;;;;;;;;;4936675;29;20668;-70
2021/04/23 06:25:23;;;;;;;12.75;5.65;;;;;;;;;;4951670;28;20499;-71
2021/04/23 06:27:51;;;;;;;11.55;5.57;;;;;;;;;;4935856;29;20047;-70
2021/04/23 06:30:20;;;;;;;10.93;4.68;;;;;;;;;;4936468;29;20421;-71
2021/04/23 06:32:46;;;;;;;11.55;5.57;;;;;;;;;;4951990;28;20051;-71
2021/04/23 06:35:15;;;;;;;11.90;5.07;;;;;;;;;;4920161;29;20110;-70
2021/04/23 06:37:42;;;;;;;8.10;4.57;;;;;;;;;;4951272;28;20074;-70
2021/04/23 06:40:09;;;;;;;9.63;5.10;;;;;;;;;;4935792;29;20110;-71
2021/04/23 06:42:35;;;;;;;11.52;5.22;;;;;;;;;;4938480;29;20098;-71
2021/04/23 06:45:07;;;;;;;11.25;5.53;;;;;;;;;;4935895;28;20051;-70
2021/04/23 06:47:34;;;;;;;11.63;5.13;;;;;;;;;;4919634;29;20430;-70
2021/04/23 06:50:01;;;;;;;12.23;4.85;;;;;;;;;;4935124;29;20491;-70
2021/04/23 06:52:27;;;;;;;8.93;4.60;;;;;;;;;;4935522;29;20114;-71
2021/04/23 06:54:57;;;;;;;11.25;5.50;;;;;;;;;;4942331;28;20077;-71
2021/04/23 06:57:24;;;;;;;12.15;5.20;;;;;;;;;;4954135;28;20057;-71
2021/04/23 06:59:50;;;;;;;9.18;5.53;;;;;;;;;;4970667;28;20046;-71
2021/04/23 07:02:16;;;;;;;12.30;4.45;;;;;;;;;;4970060;28;20121;-70
2021/04/23 07:04:43;;;;;;;8.40;4.63;;;;;;;;;;4971890;28;20059;-71
2021/04/23 07:07:09;;;;;;;14.07;5.47;;;;;;;;;;4971176;28;20097;-71
2021/04/23 07:09:35;;;;;;;13.73;5.47;;;;;;;;;;4971832;28;20082;-71
2021/04/23 07:12:02;;;;;;;10.18;5.07;;;;;;;;;;4970916;28;20113;-71
2021/04/23 07:14:29;;;;;;;12.00;5.15;;;;;;;;;;4954472;28;20050;-70
2021/04/23 07:16:55;;;;;;;12.70;5.03;;;;;;;;;;4953034;28;20058;-70
2021/04/23 07:19:21;;;;;;;10.38;4.75;;;;;;;;;;4970220;28;20057;-71
2021/04/23 07:21:47;;;;;;;10.93;5.10;;;;;;;;;;4938446;28;20133;-71
2021/04/23 07:24:14;;;;;;;11.63;4.95;;;;;;;;;;4971503;28;20145;-71
2021/04/23 07:26:40;;;;;;;10.80;4.78;;;;;;;;;;4970885;28;20434;-71
2021/04/23 07:29:06;;;;;;;12.88;5.47;;;;;;;;;;4969594;28;20057;-70
2021/04/23 07:31:32;;;;;;;14.48;5.03;;;;;;;;;;4971308;28;20050;-71
2021/04/23 07:34:00;;;;;;;8.82;4.78;;;;;;;;;;4969761;28;20042;-69
2021/04/23 07:36:26;;;;;;;12.30;5.15;;;;;;;;;;4960458;28;20054;-69
2021/04/23 07:38:52;;;;;;;11.73;5.47;;;;;;;;;;4951661;28;20051;-69
2021/04/23 07:41:18;;;;;;;7.47;4.38;;;;;;;;;;4952653;29;20089;-69
2021/04/23 07:43:44;;;;;;;11.40;5.30;;;;;;;;;;4946226;28;20569;-71
2021/04/23 07:46:11;;;;;;;9.88;4.90;;;;;;;;;;4912034;29;20047;-68
2021/04/23 07:48:37;;;;;;;10.57;4.60;;;;;;;;;;4942756;29;20055;-70
2021/04/23 07:51:03;;;;;;;11.07;4.72;;;;;;;;;;4922936;29;20059;-69
2021/04/23 07:53:30;;;;;;;7.38;4.10;;;;;;;;;;4941248;29;20051;-69
2021/04/23 07:55:56;;;;;;;11.50;4.22;;;;;;;;;;4944176;28;20054;-69
2021/04/23 07:58:22;;;;;;;13.10;4.57;;;;;;;;;;4925005;29;20522;-68
2021/04/23 08:00:48;;;;;;;10.15;4.97;;;;;;;;;;4921850;29;20350;-71
2021/04/23 08:03:20;;;;;;;10.87;3.90;;;;;;;;;;4928545;29;20200;-72
2021/04/23 08:05:46;;;;;;;10.05;4.00;;;;;;;;;;4938850;28;20299;-71
2021/04/23 08:08:12;;;;;;;13.52;4.15;;;;;;;;;;4924503;29;20125;-71
2021/04/23 08:10:39;;;;;;;9.23;4.00;;;;;;;;;;4926984;29;20054;-74
2021/04/23 08:13:05;;;;;;;11.18;3.67;;;;;;;;;;4926241;28;20050;-71
2021/04/23 08:15:32;;;;;;;12.57;4.03;;;;;;;;;;4907220;29;20127;-70
2021/04/23 08:17:59;;;;;;;12.35;3.40;;;;;;;;;;4908578;28;20082;-69
2021/04/23 08:20:26;;;;;;;10.90;3.85;;;;;;;;;;4923884;29;20499;-71
2021/04/23 08:22:52;;;;;;;9.52;3.75;;;;;;;;;;4908725;29;20083;-74
2021/04/23 08:25:19;;;;;;;17.92;4.47;;;;;;;;;;4921537;29;20574;-72
2021/04/23 08:27:45;;;;;;;15.68;4.32;;;;;;;;;;4944893;28;20081;-73
2021/04/23 08:30:12;;;;;;;10.32;3.90;;;;;;;;;;4946702;28;20066;-69
2021/04/23 08:32:38;;;;;;;6.30;3.47;;;;;;;;;;4969531;28;20074;-70
2021/04/23 08:35:06;;;;;;;10.68;5.28;;;;;;;;;;4954169;28;20051;-71
2021/04/23 08:37:33;;;;;;;12.07;4.82;;;;;;;;;;4953815;28;20048;-70
2021/04/23 08:39:59;;;;;;;10.90;4.78;;;;;;;;;;4953174;28;20051;-70
2021/04/23 08:42:25;;;;;;;14.98;5.78;;;;;;;;;;4972370;28;20047;-70
2021/04/23 08:44:51;;;;;;;13.68;4.18;;;;;;;;;;4945004;28;20051;-70
2021/04/23 08:47:18;;;;;;;11.70;5.07;;;;;;;;;;4939446;29;20399;-70
2021/04/23 08:49:45;;;;;;;13.70;4.05;;;;;;;;;;4940214;29;20062;-70
2021/04/23 08:52:11;;;;;;;12.05;3.78;;;;;;;;;;4924124;29;20102;-70
2021/04/23 08:54:38;;;;;;;15.05;4.68;;;;;;;;;;4940186;29;20145;-70
2021/04/23 08:57:04;;;;;;;13.73;5.03;;;;;;;;;;4939305;28;20102;-70
2021/04/23 08:59:30;;;;;;;10.13;4.55;;;;;;;;;;4924162;29;20087;-70
2021/04/23 09:01:56;;;;;;;12.88;4.53;;;;;;;;;;4939291;28;20561;-70
2021/04/23 09:04:23;;;;;;;13.35;4.32;;;;;;;;;;4956621;28;20059;-69
2021/04/23 09:07:03;;;;;;;11.07;4.55;;;;;;;;;;4978050;23;20056;-70
2021/04/23 09:09:40;;;;;;;14.65;5.22;;;;;;;;;;4937552;29;20051;-70
2021/04/23 09:12:21;;;;;;;13.48;4.78;;;;;;;;;;4937413;29;20055;-70
2021/04/23 09:14:54;;;;;;;13.75;4.40;;;;;;;;;;4937331;29;20302;-70
2021/04/23 09:17:24;;;;;;;8.15;4.57;;;;;;;;;;4936439;29;20044;-70
2021/04/23 09:19:51;;;;;;;12.45;4.40;;;;;;;;;;4937234;29;20126;-70
2021/04/23 09:22:17;;;;;;;11.57;4.65;;;;;;;;;;4937331;29;20095;-70
2021/04/23 09:24:45;;;;;;;14.50;5.05;;;;;;;;;;4937229;29;20575;-70
2021/04/23 09:27:19;;;;;;;13.93;4.85;;;;;;;;;;4936672;29;20086;-70
2021/04/23 09:29:47;;;;;;;12.38;4.68;;;;;;;;;;4937111;29;20051;-70
2021/04/23 09:32:18;;;;;;;11.95;4.00;;;;;;;;;;4937080;29;20467;-70
2021/04/23 09:35:02;;;;;;;12.55;5.18;;;;;;;;;;4919319;29;20051;-70
2021/04/23 09:37:30;;;;;;;10.45;5.03;;;;;;;;;;4936368;29;20541;-71
2021/04/23 09:40:33;;;;;;;9.48;5.10;;;;;;;;;;4936896;29;20074;-70
2021/04/23 09:43:00;;;;;;;9.30;4.75;;;;;;;;;;4937289;29;20087;-70
2021/04/23 09:45:31;;;;;;;11.85;6.35;;;;;;;;;;4936404;29;20404;-70
2021/04/23 09:47:57;;;;;;;9.30;5.03;;;;;;;;;;4937079;29;20055;-71
2021/04/23 09:50:31;;;;;;;9.95;4.38;;;;;;;;;;4937288;29;20465;-70
2021/04/23 09:52:58;;;;;;;12.38;4.90;;;;;;;;;;4936876;29;20110;-70
2021/04/23 09:55:27;;;;;;;8.10;3.83;;;;;;;;;;4936610;29;20052;-70
2021/04/23 09:57:56;;;;;;;13.02;4.78;;;;;;;;;;4936212;29;20097;-71
2021/04/23 10:00:25;;;;;;;9.35;4.80;;;;;;;;;;4936737;29;20142;-71
2021/04/23 10:02:57;;;;;;;12.77;5.75;;;;;;;;;;4919614;29;20058;-70
2021/04/23 10:05:39;;;;;;;16.00;4.68;;;;;;;;;;4936001;29;20092;-70
2021/04/23 10:08:25;;;;;;;14.73;5.47;;;;;;;;;;4936618;29;20047;-70
2021/04/23 10:10:53;;;;;;;17.33;5.25;;;;;;;;;;4935933;29;20299;-71
2021/04/23 10:13:33;;;;;;;11.00;4.85;;;;;;;;;;4936634;29;20052;-71
2021/04/23 10:16:00;;;;;;;9.98;4.65;;;;;;;;;;4936188;29;20486;-71
2021/04/23 10:18:27;;;;;;;10.35;5.20;;;;;;;;;;4936561;29;20126;-70
2021/04/23 10:20:57;;;;;;;11.20;4.88;;;;;;;;;;4936643;29;20107;-71
2021/04/23 10:23:23;;;;;;;10.77;4.70;;;;;;;;;;4919903;29;20052;-71
2021/04/23 10:25:51;;;;;;;9.95;4.38;;;;;;;;;;4935810;29;20126;-71
2021/04/23 10:28:22;;;;;;;7.90;4.93;;;;;;;;;;4936156;29;20044;-71
2021/04/23 10:30:54;;;;;;;16.40;5.60;;;;;;;;;;4936605;29;20694;-71
2021/04/23 10:33:22;;;;;;;11.70;5.22;;;;;;;;;;4936655;29;20547;-70
2021/04/23 10:35:50;;;;;;;8.32;5.07;;;;;;;;;;4935506;29;20055;-70
2021/04/23 10:38:18;;;;;;;13.02;4.90;;;;;;;;;;4936163;29;20044;-70
2021/04/23 10:41:01;;;;;;;15.43;6.15;;;;;;;;;;4934849;29;20055;-71
2021/04/23 10:43:31;;;;;;;10.07;4.88;;;;;;;;;;4919875;29;20062;-70
2021/04/23 10:46:09;;;;;;;13.00;4.95;;;;;;;;;;4933813;29;20063;-71
2021/04/23 10:48:43;;;;;;;9.95;5.22;;;;;;;;;;4935968;29;20392;-71
2021/04/23 10:51:18;;;;;;;11.55;5.18;;;;;;;;;;4936175;29;20052;-71
2021/04/23 10:53:48;;;;;;;9.05;5.07;;;;;;;;;;4935785;29;20103;-70
2021/04/23 10:56:28;;;;;;;12.30;5.35;;;;;;;;;;4934836;29;20048;-71
2021/04/23 10:58:55;;;;;;;7.60;4.68;;;;;;;;;;4935476;29;20048;-70
2021/04/23 11:01:24;;;;;;;9.18;4.97;;;;;;;;;;4935527;29;20056;-71
2021/04/23 11:04:03;;;;;;;9.98;4.60;;;;;;;;;;4918499;29;20051;-70
2021/04/23 11:06:32;;;;;;;11.10;5.82;;;;;;;;;;4933746;29;20048;-71
2021/04/23 11:08:58;;;;;;;9.98;5.57;;;;;;;;;;4935327;29;20059;-71
2021/04/23 11:11:29;;;;;;;11.10;5.60;;;;;;;;;;4935686;29;20052;-71
2021/04/23 11:13:56;;;;;;;14.60;5.32;;;;;;;;;;4918283;29;20103;-70
2021/04/23 11:16:25;;;;;;;8.75;5.78;;;;;;;;;;4917246;29;20055;-70
2021/04/23 11:18:53;;;;;;;8.68;4.60;;;;;;;;;;4935403;29;20058;-71
2021/04/23 11:21:34;;;;;;;9.80;4.65;;;;;;;;;;4935382;29;20051;-71
2021/04/23 11:24:06;;;;;;;12.07;4.50;;;;;;;;;;4935330;29;20047;-70
2021/04/23 11:29:28;;;;;;;11.52;4.82;;;;;;;;;;4935022;29;20123;-70
2021/04/23 11:32:25;;;;;;;11.95;5.60;;;;;;;;;;4934101;29;20047;-71
2021/04/23 11:35:09;;;;;;;8.73;4.60;;;;;;;;;;4933301;29;20043;-71
2021/04/23 11:37:41;;;;;;;10.68;5.50;;;;;;;;;;4934327;29;20563;-70
2021/04/23 11:40:15;;;;;;;9.97;4.70;;;;;;;;;;4934215;29;20107;-71
2021/04/23 11:42:45;;;;;;;10.52;5.13;;;;;;;;;;4934914;29;20408;-71
2021/04/23 11:45:24;;;;;;;11.70;5.05;;;;;;;;;;4934630;29;20107;-71
2021/04/23 11:47:55;;;;;;;11.30;5.10;;;;;;;;;;4934658;29;20047;-71
2021/04/23 11:50:40;;;;;;;10.75;5.50;;;;;;;;;;4934707;29;20221;-71
2021/04/23 11:53:11;;;;;;;10.63;5.60;;;;;;;;;;4934752;29;20054;-71
2021/04/23 11:55:43;;;;;;;11.73;5.40;;;;;;;;;;4933795;29;20052;-71
2021/04/23 11:58:13;;;;;;;11.00;5.35;;;;;;;;;;4928941;29;20047;-73
2021/04/23 12:00:41;;;;;;;13.88;5.20;;;;;;;;;;4934124;29;20052;-71
2021/04/23 12:03:12;;;;;;;10.68;5.13;;;;;;;;;;4934330;29;20048;-72
2021/04/23 12:05:55;;;;;;;8.85;4.78;;;;;;;;;;4928646;29;20063;-72
2021/04/23 12:08:26;;;;;;;12.25;5.30;;;;;;;;;;4933884;29;20055;-72
2021/04/23 12:10:54;;;;;;;12.00;5.03;;;;;;;;;;4917550;29;20079;-72
2021/04/23 12:13:24;;;;;;;13.82;5.30;;;;;;;;;;4934626;29;20079;-72
2021/04/23 12:15:53;;;;;;;9.30;4.60;;;;;;;;;;4916684;29;20052;-71
2021/04/23 12:18:19;;;;;;;10.98;5.78;;;;;;;;;;4934430;29;20051;-71
2021/04/23 12:20:50;;;;;;;10.98;5.43;;;;;;;;;;4934257;29;20054;-72
2021/04/23 12:23:24;;;;;;;8.77;5.18;;;;;;;;;;4933372;29;20515;-71
2021/04/23 12:26:00;;;;;;;9.30;5.05;;;;;;;;;;4933404;29;20052;-71
2021/04/23 12:28:34;;;;;;;9.32;4.45;;;;;;;;;;4933977;29;20086;-72
2021/04/23 12:31:10;;;;;;;9.85;4.88;;;;;;;;;;4934317;29;20055;-72
2021/04/23 12:33:38;;;;;;;9.30;4.72;;;;;;;;;;4925532;29;20079;-70
2021/04/23 12:36:18;;;;;;;9.25;5.00;;;;;;;;;;4919679;29;20060;-72
2021/04/23 12:38:47;;;;;;;7.80;4.47;;;;;;;;;;4925955;29;20103;-68
2021/04/23 12:41:22;;;;;;;9.80;5.30;;;;;;;;;;4920723;29;20467;-68
2021/04/23 12:43:50;;;;;;;6.75;4.38;;;;;;;;;;4923121;29;20052;-71
2021/04/23 12:46:54;;;;;;;8.73;3.67;;;;;;;;;;4914442;29;20051;-71
2021/04/23 12:49:24;;;;;;;;;;;;;;;;;;4912763;29;20400;-72
2021/04/23 12:52:00;;;;;;;8.43;3.50;;;;;;;;;;4928609;29;19966;-71
2021/04/23 12:54:44;;;;;;;6.97;3.15;;;;;;;;;;4909008;29;20490;-71
2021/04/23 12:57:13;;;;;;;7.15;3.35;;;;;;;;;;4926845;29;20491;-71
2021/04/23 12:59:40;;;;;;;9.98;3.65;;;;;;;;;;4928976;29;20059;-71
2021/04/23 13:02:13;;;;;;;6.28;3.38;;;;;;;;;;4928543;29;20059;-71
2021/04/23 13:04:42;;;;;;;6.47;3.47;;;;;;;;;;4916130;29;20427;-71
2021/04/23 13:07:14;;;;;;;6.13;3.35;;;;;;;;;;4919402;29;20056;-71
2021/04/23 13:09:40;;;;;;;8.02;3.33;;;;;;;;;;4926752;29;20573;-71
2021/04/23 13:12:21;;;;;;;8.02;4.05;;;;;;;;;;4933682;29;20467;-71
2021/04/23 13:14:49;;;;;;;6.82;3.03;;;;;;;;;;4926172;29;20058;-71
2021/04/23 13:17:15;;;;;;;8.25;4.13;;;;;;;;;;4919777;29;20040;-72
2021/04/23 13:19:52;;;;;;;9.00;4.55;;;;;;;;;;4920333;29;20051;-71
2021/04/23 13:22:26;;;;;;;8.27;3.20;;;;;;;;;;4923316;29;20499;-71
2021/04/23 13:25:15;;;;;;;7.55;3.72;;;;;;;;;;4928092;29;20119;-71
2021/04/23 13:27:43;;;;;;;7.88;3.95;;;;;;;;;;4928535;29;20104;-71
2021/04/23 13:30:26;;;;;;;9.82;4.75;;;;;;;;;;4929059;29;20055;-71
2021/04/23 13:32:52;;;;;;;;;;;;;;;;;;4931281;29;20122;-71
2021/04/23 13:35:32;;;;;;;7.47;4.43;;;;;;;;;;4926284;29;19927;-71
2021/04/23 13:38:17;;;;;;;9.35;3.95;;;;;;;;;;4922849;29;20043;-71
2021/04/23 13:40:43;;;;;;;6.63;4.20;;;;;;;;;;4928000;29;20554;-71
2021/04/23 13:43:11;;;;;;;7.22;4.32;;;;;;;;;;4924708;29;20048;-71
2021/04/23 13:45:37;;;;;;;8.68;4.00;;;;;;;;;;4927242;29;20063;-71
2021/04/23 13:48:27;;;;;;;8.43;4.20;;;;;;;;;;4925480;29;20090;-71
2021/04/23 13:50:59;;;;;;;9.93;4.43;;;;;;;;;;4926901;29;20499;-71
2021/04/23 13:53:30;;;;;;;8.05;5.00;;;;;;;;;;4923823;29;20052;-71
2021/04/23 13:56:23;;;;;;;10.10;4.30;;;;;;;;;;4928741;29;20056;-71
2021/04/23 13:58:56;;;;;;;9.38;4.22;;;;;;;;;;4919412;29;20103;-71
2021/04/23 14:01:26;;;;;;;8.95;4.45;;;;;;;;;;4914391;29;20102;-71
2021/04/23 14:03:53;;;;;;;6.45;3.33;;;;;;;;;;4928815;29;20051;-70
2021/04/23 14:06:19;;;;;;;8.23;4.00;;;;;;;;;;4929372;29;20087;-70
2021/04/23 14:08:45;;;;;;;7.05;3.20;;;;;;;;;;4926156;29;20058;-70
2021/04/23 14:11:13;;;;;;;7.93;3.83;;;;;;;;;;4927463;29;20051;-71
2021/04/23 14:13:39;;;;;;;8.18;4.32;;;;;;;;;;4914557;29;20107;-71
2021/04/23 14:16:05;;;;;;;10.23;4.13;;;;;;;;;;4927890;29;20056;-70
2021/04/23 14:18:32;;;;;;;8.82;4.13;;;;;;;;;;4922466;29;20044;-70
2021/04/23 14:20:58;;;;;;;9.82;4.68;;;;;;;;;;4925326;29;20086;-70
2021/04/23 14:23:24;;;;;;;7.38;4.45;;;;;;;;;;4922012;29;20059;-71
2021/04/23 14:25:51;;;;;;;7.00;4.03;;;;;;;;;;4923485;29;20048;-70
2021/04/23 14:28:17;;;;;;;11.70;4.28;;;;;;;;;;4922359;29;20131;-70
2021/04/23 14:30:43;;;;;;;7.20;3.72;;;;;;;;;;4925167;29;20051;-70
2021/04/23 14:33:09;;;;;;;10.10;4.53;;;;;;;;;;4928049;29;20499;-70
2021/04/23 14:35:35;;;;;;;6.25;4.03;;;;;;;;;;4929616;29;20111;-71
2021/04/23 14:38:01;;;;;;;7.18;3.63;;;;;;;;;;4923781;29;20059;-70
2021/04/23 14:40:28;;;;;;;6.50;4.20;;;;;;;;;;4924458;29;20531;-71
2021/04/23 14:42:54;;;;;;;5.63;3.42;;;;;;;;;;4925496;29;20098;-71
2021/04/23 14:45:20;;;;;;;5.72;3.70;;;;;;;;;;4928615;29;20124;-69
2021/04/23 14:47:47;;;;;;;8.65;4.32;;;;;;;;;;4926269;29;20044;-70
2021/04/23 14:50:13;;;;;;;8.43;4.07;;;;;;;;;;4924049;29;20044;-70
2021/04/23 14:52:40;;;;;;;5.35;3.72;;;;;;;;;;4928948;29;20055;-70